sensor_id;sensor_type;location;lat;lon;timestamp;P1;durP1;ratioP1;P2;durP2;ratioP2
43700;SDS011;58809;47.984;7.964;2022-11-15T00:02:02;11.10;;;5.93;;
43700;SDS011;58809;47.984;7.964;2022-11-15T00:05:24;7.43;;;5.63;;
43700;SDS011;58809;47.984;7.964;2022-11-15T00:08:44;6.45;;;5.75;;
43700;SDS011;58809;47.984;7.964;2022-11-15T00:12:04;6.97;;;5.38;;
43700;SDS011;58809;47.984;7.964;2022-11-15T00:15:24;5.88;;;5.03;;
43700;SDS011;58809;47.984;7.964;2022-11-15T00:18:44;7.43;;;5.63;;
43700;SDS011;58809;47.984;7.964;2022-11-15T00:22:09;7.97;;;5.10;;
43700;SDS011;58809;47.984;7.964;2022-11-15T00:25:30;8.98;;;5.28;;
43700;SDS011;58809;47.984;7.964;2022-11-15T00:28:51;7.20;;;5.50;;
43700;SDS011;58809;47.984;7.964;2022-11-15T00:32:12;7.10;;;5.30;;
43700;SDS011;58809;47.984;7.964;2022-11-15T00:35:32;7.55;;;4.97;;
43700;SDS011;58809;47.984;7.964;2022-11-15T00:38:53;7.38;;;5.80;;
43700;SDS011;58809;47.984;7.964;2022-11-15T00:42:14;11.68;;;5.72;;
43700;SDS011;58809;47.984;7.964;2022-11-15T00:45:33;8.20;;;5.07;;
43700;SDS011;58809;47.984;7.964;2022-11-15T00:48:53;6.85;;;5.13;;
43700;SDS011;58809;47.984;7.964;2022-11-15T00:52:14;7.80;;;5.28;;
43700;SDS011;58809;47.984;7.964;2022-11-15T00:55:34;7.50;;;5.25;;
43700;SDS011;58809;47.984;7.964;2022-11-15T00:58:54;7.35;;;5.35;;
43700;SDS011;58809;47.984;7.964;2022-11-15T01:02:14;6.28;;;5.00;;
43700;SDS011;58809;47.984;7.964;2022-11-15T01:05:36;7.25;;;4.97;;
43700;SDS011;58809;47.984;7.964;2022-11-15T01:08:57;9.82;;;5.43;;
43700;SDS011;58809;47.984;7.964;2022-11-15T01:12:17;7.75;;;5.78;;
43700;SDS011;58809;47.984;7.964;2022-11-15T01:15:40;9.43;;;5.70;;
43700;SDS011;58809;47.984;7.964;2022-11-15T01:19:01;6.90;;;5.05;;
43700;SDS011;58809;47.984;7.964;2022-11-15T01:22:21;8.95;;;5.55;;
43700;SDS011;58809;47.984;7.964;2022-11-15T01:25:41;6.95;;;5.07;;
43700;SDS011;58809;47.984;7.964;2022-11-15T01:29:01;8.90;;;4.72;;
43700;SDS011;58809;47.984;7.964;2022-11-15T01:32:21;7.00;;;5.38;;
43700;SDS011;58809;47.984;7.964;2022-11-15T01:35:41;6.93;;;5.32;;
43700;SDS011;58809;47.984;7.964;2022-11-15T01:39:01;6.85;;;5.13;;
43700;SDS011;58809;47.984;7.964;2022-11-15T01:42:21;6.93;;;5.28;;
43700;SDS011;58809;47.984;7.964;2022-11-15T01:45:41;7.18;;;5.68;;
43700;SDS011;58809;47.984;7.964;2022-11-15T01:49:02;6.35;;;5.03;;
43700;SDS011;58809;47.984;7.964;2022-11-15T01:52:31;8.63;;;5.10;;
43700;SDS011;58809;47.984;7.964;2022-11-15T01:55:54;6.30;;;5.10;;
43700;SDS011;58809;47.984;7.964;2022-11-15T01:59:15;6.88;;;4.72;;
43700;SDS011;58809;47.984;7.964;2022-11-15T02:02:36;5.88;;;4.65;;
43700;SDS011;58809;47.984;7.964;2022-11-15T02:05:57;7.10;;;4.90;;
43700;SDS011;58809;47.984;7.964;2022-11-15T02:09:17;9.02;;;4.70;;
43700;SDS011;58809;47.984;7.964;2022-11-15T02:12:38;6.68;;;4.95;;
43700;SDS011;58809;47.984;7.964;2022-11-15T02:16:24;6.63;;;4.90;;
43700;SDS011;58809;47.984;7.964;2022-11-15T02:30:42;6.50;;;4.47;;
43700;SDS011;58809;47.984;7.964;2022-11-15T02:37:44;6.50;;;4.00;;
43700;SDS011;58809;47.984;7.964;2022-11-15T02:41:23;5.25;;;4.10;;
43700;SDS011;58809;47.984;7.964;2022-11-15T02:44:50;5.45;;;4.15;;
43700;SDS011;58809;47.984;7.964;2022-11-15T02:48:12;7.30;;;4.57;;
43700;SDS011;58809;47.984;7.964;2022-11-15T02:51:34;7.18;;;4.03;;
43700;SDS011;58809;47.984;7.964;2022-11-15T02:54:55;5.07;;;4.20;;
43700;SDS011;58809;47.984;7.964;2022-11-15T03:16:11;8.95;;;4.25;;
43700;SDS011;58809;47.984;7.964;2022-11-15T03:19:46;6.22;;;3.88;;
43700;SDS011;58809;47.984;7.964;2022-11-15T03:23:10;5.80;;;4.07;;
43700;SDS011;58809;47.984;7.964;2022-11-15T03:26:30;9.32;;;4.93;;
43700;SDS011;58809;47.984;7.964;2022-11-15T03:29:54;6.38;;;3.70;;
43700;SDS011;58809;47.984;7.964;2022-11-15T03:33:19;4.78;;;3.70;;
43700;SDS011;58809;47.984;7.964;2022-11-15T03:36:41;7.82;;;4.28;;
43700;SDS011;58809;47.984;7.964;2022-11-15T03:40:02;5.72;;;3.80;;
43700;SDS011;58809;47.984;7.964;2022-11-15T03:43:39;5.70;;;3.78;;
43700;SDS011;58809;47.984;7.964;2022-11-15T03:50:33;4.88;;;3.83;;
43700;SDS011;58809;47.984;7.964;2022-11-15T03:53:54;8.70;;;4.15;;
43700;SDS011;58809;47.984;7.964;2022-11-15T03:57:15;7.80;;;3.85;;
43700;SDS011;58809;47.984;7.964;2022-11-15T04:00:35;5.43;;;4.03;;
43700;SDS011;58809;47.984;7.964;2022-11-15T04:03:55;5.03;;;3.75;;
43700;SDS011;58809;47.984;7.964;2022-11-15T04:07:15;6.05;;;3.85;;
43700;SDS011;58809;47.984;7.964;2022-11-15T04:10:36;5.43;;;3.58;;
43700;SDS011;58809;47.984;7.964;2022-11-15T04:13:55;4.07;;;3.53;;
43700;SDS011;58809;47.984;7.964;2022-11-15T04:17:16;6.03;;;3.78;;
43700;SDS011;58809;47.984;7.964;2022-11-15T04:20:35;5.68;;;3.85;;
43700;SDS011;58809;47.984;7.964;2022-11-15T04:24:14;5.60;;;3.75;;
43700;SDS011;58809;47.984;7.964;2022-11-15T04:27:34;5.60;;;4.00;;
43700;SDS011;58809;47.984;7.964;2022-11-15T04:30:55;7.35;;;3.80;;
43700;SDS011;58809;47.984;7.964;2022-11-15T04:34:16;5.10;;;3.75;;
43700;SDS011;58809;47.984;7.964;2022-11-15T04:37:35;5.43;;;3.80;;
43700;SDS011;58809;47.984;7.964;2022-11-15T04:40:56;5.53;;;3.90;;
43700;SDS011;58809;47.984;7.964;2022-11-15T04:44:15;5.47;;;3.92;;
43700;SDS011;58809;47.984;7.964;2022-11-15T04:47:36;6.03;;;3.70;;
43700;SDS011;58809;47.984;7.964;2022-11-15T04:50:56;5.45;;;4.00;;
43700;SDS011;58809;47.984;7.964;2022-11-15T04:54:16;5.05;;;3.67;;
43700;SDS011;58809;47.984;7.964;2022-11-15T04:57:37;7.43;;;3.83;;
43700;SDS011;58809;47.984;7.964;2022-11-15T05:00:57;4.78;;;3.88;;
43700;SDS011;58809;47.984;7.964;2022-11-15T05:04:18;4.55;;;3.85;;
43700;SDS011;58809;47.984;7.964;2022-11-15T05:07:41;4.43;;;3.40;;
43700;SDS011;58809;47.984;7.964;2022-11-15T05:11:01;4.20;;;3.58;;
43700;SDS011;58809;47.984;7.964;2022-11-15T05:14:21;5.47;;;3.65;;
43700;SDS011;58809;47.984;7.964;2022-11-15T05:17:41;4.78;;;3.45;;
43700;SDS011;58809;47.984;7.964;2022-11-15T05:21:08;4.35;;;3.30;;
43700;SDS011;58809;47.984;7.964;2022-11-15T05:24:31;5.80;;;3.38;;
43700;SDS011;58809;47.984;7.964;2022-11-15T05:27:51;8.00;;;3.80;;
43700;SDS011;58809;47.984;7.964;2022-11-15T05:31:13;4.93;;;3.47;;
43700;SDS011;58809;47.984;7.964;2022-11-15T05:34:34;5.45;;;3.55;;
43700;SDS011;58809;47.984;7.964;2022-11-15T05:37:54;4.80;;;3.50;;
43700;SDS011;58809;47.984;7.964;2022-11-15T05:41:14;6.47;;;3.88;;
43700;SDS011;58809;47.984;7.964;2022-11-15T05:44:39;7.83;;;5.13;;
43700;SDS011;58809;47.984;7.964;2022-11-15T05:48:04;7.03;;;4.93;;
43700;SDS011;58809;47.984;7.964;2022-11-15T05:51:27;5.90;;;4.15;;
43700;SDS011;58809;47.984;7.964;2022-11-15T05:54:48;5.35;;;4.05;;
43700;SDS011;58809;47.984;7.964;2022-11-15T05:58:09;6.45;;;4.68;;
43700;SDS011;58809;47.984;7.964;2022-11-15T06:01:29;5.93;;;4.90;;
43700;SDS011;58809;47.984;7.964;2022-11-15T06:04:50;6.20;;;4.70;;
43700;SDS011;58809;47.984;7.964;2022-11-15T06:08:10;6.65;;;4.38;;
43700;SDS011;58809;47.984;7.964;2022-11-15T06:11:30;9.15;;;5.20;;
43700;SDS011;58809;47.984;7.964;2022-11-15T06:14:50;6.20;;;5.25;;
43700;SDS011;58809;47.984;7.964;2022-11-15T06:18:17;7.47;;;5.05;;
43700;SDS011;58809;47.984;7.964;2022-11-15T06:21:57;8.68;;;6.18;;
43700;SDS011;58809;47.984;7.964;2022-11-15T06:25:17;13.63;;;10.95;;
43700;SDS011;58809;47.984;7.964;2022-11-15T06:28:37;12.00;;;8.10;;
43700;SDS011;58809;47.984;7.964;2022-11-15T06:31:57;8.98;;;6.75;;
43700;SDS011;58809;47.984;7.964;2022-11-15T06:35:17;12.07;;;8.40;;
43700;SDS011;58809;47.984;7.964;2022-11-15T06:38:37;11.57;;;7.90;;
43700;SDS011;58809;47.984;7.964;2022-11-15T06:41:57;9.15;;;7.45;;
43700;SDS011;58809;47.984;7.964;2022-11-15T06:45:17;7.85;;;6.63;;
43700;SDS011;58809;47.984;7.964;2022-11-15T06:48:37;7.47;;;5.85;;
43700;SDS011;58809;47.984;7.964;2022-11-15T06:51:57;12.73;;;6.43;;
43700;SDS011;58809;47.984;7.964;2022-11-15T06:55:17;8.35;;;6.50;;
43700;SDS011;58809;47.984;7.964;2022-11-15T06:58:38;25.15;;;8.35;;
43700;SDS011;58809;47.984;7.964;2022-11-15T07:01:58;11.68;;;6.43;;
43700;SDS011;58809;47.984;7.964;2022-11-15T07:05:18;15.88;;;12.07;;
43700;SDS011;58809;47.984;7.964;2022-11-15T07:08:38;15.20;;;10.48;;
43700;SDS011;58809;47.984;7.964;2022-11-15T07:11:58;18.50;;;12.85;;
43700;SDS011;58809;47.984;7.964;2022-11-15T07:15:26;13.43;;;11.02;;
43700;SDS011;58809;47.984;7.964;2022-11-15T07:18:46;12.65;;;8.02;;
43700;SDS011;58809;47.984;7.964;2022-11-15T07:22:06;10.27;;;6.93;;
43700;SDS011;58809;47.984;7.964;2022-11-15T07:25:26;10.40;;;7.32;;
43700;SDS011;58809;47.984;7.964;2022-11-15T07:28:46;9.05;;;7.53;;
43700;SDS011;58809;47.984;7.964;2022-11-15T07:32:06;23.63;;;14.80;;
43700;SDS011;58809;47.984;7.964;2022-11-15T07:35:27;42.83;;;25.58;;
43700;SDS011;58809;47.984;7.964;2022-11-15T07:38:48;30.00;;;20.63;;
43700;SDS011;58809;47.984;7.964;2022-11-15T07:42:08;32.63;;;23.30;;
43700;SDS011;58809;47.984;7.964;2022-11-15T07:45:47;26.67;;;20.38;;
43700;SDS011;58809;47.984;7.964;2022-11-15T07:49:08;23.13;;;16.25;;
43700;SDS011;58809;47.984;7.964;2022-11-15T07:52:28;21.10;;;16.52;;
43700;SDS011;58809;47.984;7.964;2022-11-15T07:55:48;9.85;;;8.27;;
43700;SDS011;58809;47.984;7.964;2022-11-15T07:59:08;7.65;;;6.72;;
43700;SDS011;58809;47.984;7.964;2022-11-15T08:02:28;10.07;;;6.95;;
43700;SDS011;58809;47.984;7.964;2022-11-15T08:05:50;13.20;;;7.75;;
43700;SDS011;58809;47.984;7.964;2022-11-15T08:09:11;9.68;;;7.70;;
43700;SDS011;58809;47.984;7.964;2022-11-15T08:12:32;11.27;;;7.18;;
43700;SDS011;58809;47.984;7.964;2022-11-15T08:15:56;9.77;;;7.82;;
43700;SDS011;58809;47.984;7.964;2022-11-15T08:19:17;7.18;;;4.57;;
43700;SDS011;58809;47.984;7.964;2022-11-15T08:22:38;6.60;;;5.28;;
43700;SDS011;58809;47.984;7.964;2022-11-15T08:25:59;12.98;;;5.90;;
43700;SDS011;58809;47.984;7.964;2022-11-15T08:29:22;7.22;;;5.38;;
43700;SDS011;58809;47.984;7.964;2022-11-15T08:32:42;6.50;;;5.30;;
43700;SDS011;58809;47.984;7.964;2022-11-15T08:36:02;8.48;;;5.55;;
43700;SDS011;58809;47.984;7.964;2022-11-15T08:39:23;5.35;;;4.85;;
43700;SDS011;58809;47.984;7.964;2022-11-15T08:42:43;6.32;;;5.50;;
43700;SDS011;58809;47.984;7.964;2022-11-15T08:46:07;6.80;;;4.30;;
43700;SDS011;58809;47.984;7.964;2022-11-15T08:49:31;5.75;;;4.88;;
43700;SDS011;58809;47.984;7.964;2022-11-15T08:52:51;3.92;;;3.40;;
43700;SDS011;58809;47.984;7.964;2022-11-15T08:56:12;4.35;;;3.78;;
43700;SDS011;58809;47.984;7.964;2022-11-15T08:59:33;14.80;;;5.43;;
43700;SDS011;58809;47.984;7.964;2022-11-15T09:02:53;6.35;;;3.90;;
43700;SDS011;58809;47.984;7.964;2022-11-15T09:06:13;3.22;;;2.60;;
43700;SDS011;58809;47.984;7.964;2022-11-15T09:09:33;3.85;;;2.78;;
43700;SDS011;58809;47.984;7.964;2022-11-15T09:12:53;6.55;;;4.65;;
43700;SDS011;58809;47.984;7.964;2022-11-15T09:16:13;8.10;;;5.10;;
43700;SDS011;58809;47.984;7.964;2022-11-15T09:19:34;6.82;;;4.93;;
43700;SDS011;58809;47.984;7.964;2022-11-15T09:22:54;6.07;;;4.50;;
43700;SDS011;58809;47.984;7.964;2022-11-15T09:26:14;6.18;;;4.93;;
43700;SDS011;58809;47.984;7.964;2022-11-15T09:29:34;7.38;;;5.70;;
43700;SDS011;58809;47.984;7.964;2022-11-15T09:32:55;9.55;;;5.80;;
43700;SDS011;58809;47.984;7.964;2022-11-15T09:36:15;8.02;;;7.07;;
43700;SDS011;58809;47.984;7.964;2022-11-15T09:39:36;8.70;;;6.60;;
43700;SDS011;58809;47.984;7.964;2022-11-15T09:50:49;10.15;;;9.15;;
43700;SDS011;58809;47.984;7.964;2022-11-15T10:01:17;6.55;;;4.60;;
43700;SDS011;58809;47.984;7.964;2022-11-15T10:04:29;5.15;;;3.75;;
43700;SDS011;58809;47.984;7.964;2022-11-15T10:10:51;4.95;;;2.72;;
43700;SDS011;58809;47.984;7.964;2022-11-15T10:14:20;3.92;;;3.20;;
43700;SDS011;58809;47.984;7.964;2022-11-15T10:20:29;3.28;;;2.83;;
43700;SDS011;58809;47.984;7.964;2022-11-15T10:23:31;3.88;;;2.38;;
43700;SDS011;58809;47.984;7.964;2022-11-15T10:26:33;4.78;;;2.72;;
43700;SDS011;58809;47.984;7.964;2022-11-15T10:29:35;3.28;;;2.45;;
43700;SDS011;58809;47.984;7.964;2022-11-15T10:32:36;3.55;;;2.20;;
43700;SDS011;58809;47.984;7.964;2022-11-15T10:35:38;2.28;;;2.08;;
43700;SDS011;58809;47.984;7.964;2022-11-15T10:41:50;4.47;;;2.92;;
43700;SDS011;58809;47.984;7.964;2022-11-15T10:44:53;3.45;;;2.28;;
43700;SDS011;58809;47.984;7.964;2022-11-15T10:47:59;4.32;;;2.42;;
43700;SDS011;58809;47.984;7.964;2022-11-15T10:51:24;3.78;;;3.30;;
43700;SDS011;58809;47.984;7.964;2022-11-15T10:54:45;5.53;;;3.78;;
43700;SDS011;58809;47.984;7.964;2022-11-15T10:57:54;3.65;;;2.72;;
43700;SDS011;58809;47.984;7.964;2022-11-15T11:01:12;3.47;;;1.40;;
43700;SDS011;58809;47.984;7.964;2022-11-15T11:04:16;1.92;;;1.25;;
43700;SDS011;58809;47.984;7.964;2022-11-15T11:07:24;1.65;;;1.35;;
43700;SDS011;58809;47.984;7.964;2022-11-15T11:10:29;2.42;;;1.58;;
43700;SDS011;58809;47.984;7.964;2022-11-15T11:13:51;2.08;;;1.10;;
43700;SDS011;58809;47.984;7.964;2022-11-15T11:16:54;2.30;;;1.65;;
43700;SDS011;58809;47.984;7.964;2022-11-15T11:20:04;5.65;;;3.20;;
43700;SDS011;58809;47.984;7.964;2022-11-15T11:26:32;1.88;;;1.73;;
43700;SDS011;58809;47.984;7.964;2022-11-15T11:52:06;3.95;;;2.25;;
43700;SDS011;58809;47.984;7.964;2022-11-15T11:55:15;3.58;;;2.90;;
43700;SDS011;58809;47.984;7.964;2022-11-15T12:01:33;2.28;;;1.55;;
43700;SDS011;58809;47.984;7.964;2022-11-15T12:04:41;2.75;;;2.22;;
43700;SDS011;58809;47.984;7.964;2022-11-15T12:07:49;7.05;;;3.05;;
43700;SDS011;58809;47.984;7.964;2022-11-15T12:11:00;3.03;;;2.78;;
43700;SDS011;58809;47.984;7.964;2022-11-15T12:17:29;3.60;;;2.72;;
43700;SDS011;58809;47.984;7.964;2022-11-15T12:20:37;5.20;;;3.67;;
43700;SDS011;58809;47.984;7.964;2022-11-15T12:23:44;3.50;;;2.70;;
43700;SDS011;58809;47.984;7.964;2022-11-15T12:26:53;3.95;;;3.33;;
43700;SDS011;58809;47.984;7.964;2022-11-15T12:30:02;2.13;;;1.73;;
43700;SDS011;58809;47.984;7.964;2022-11-15T12:36:35;4.68;;;3.38;;
43700;SDS011;58809;47.984;7.964;2022-11-15T12:53:20;6.15;;;3.42;;
43700;SDS011;58809;47.984;7.964;2022-11-15T12:56:21;4.50;;;3.15;;
43700;SDS011;58809;47.984;7.964;2022-11-15T13:03:12;6.18;;;4.30;;
43700;SDS011;58809;47.984;7.964;2022-11-15T13:06:39;5.38;;;3.97;;
43700;SDS011;58809;47.984;7.964;2022-11-15T13:12:48;4.93;;;3.75;;
43700;SDS011;58809;47.984;7.964;2022-11-15T13:18:57;5.20;;;3.85;;
43700;SDS011;58809;47.984;7.964;2022-11-15T13:22:00;3.83;;;3.10;;
43700;SDS011;58809;47.984;7.964;2022-11-15T13:28:45;12.93;;;3.25;;
43700;SDS011;58809;47.984;7.964;2022-11-15T13:31:50;4.57;;;3.15;;
43700;SDS011;58809;47.984;7.964;2022-11-15T13:34:53;6.10;;;3.78;;
43700;SDS011;58809;47.984;7.964;2022-11-15T13:37:55;7.80;;;4.22;;
43700;SDS011;58809;47.984;7.964;2022-11-15T13:40:58;7.43;;;6.05;;
43700;SDS011;58809;47.984;7.964;2022-11-15T13:44:01;16.30;;;12.77;;
43700;SDS011;58809;47.984;7.964;2022-11-15T13:47:13;9.53;;;7.60;;
43700;SDS011;58809;47.984;7.964;2022-11-15T13:50:15;7.32;;;4.97;;
43700;SDS011;58809;47.984;7.964;2022-11-15T13:53:17;4.75;;;3.55;;
43700;SDS011;58809;47.984;7.964;2022-11-15T13:56:19;5.18;;;4.13;;
43700;SDS011;58809;47.984;7.964;2022-11-15T13:59:25;2.67;;;2.42;;
43700;SDS011;58809;47.984;7.964;2022-11-15T14:02:30;3.25;;;2.63;;
43700;SDS011;58809;47.984;7.964;2022-11-15T14:05:33;6.90;;;2.58;;
43700;SDS011;58809;47.984;7.964;2022-11-15T14:08:35;2.58;;;2.25;;
43700;SDS011;58809;47.984;7.964;2022-11-15T14:11:48;3.75;;;2.75;;
43700;SDS011;58809;47.984;7.964;2022-11-15T14:14:54;2.83;;;2.45;;
43700;SDS011;58809;47.984;7.964;2022-11-15T14:17:56;2.92;;;2.65;;
43700;SDS011;58809;47.984;7.964;2022-11-15T14:21:06;4.20;;;3.42;;
43700;SDS011;58809;47.984;7.964;2022-11-15T14:24:20;4.55;;;3.60;;
43700;SDS011;58809;47.984;7.964;2022-11-15T14:27:26;4.22;;;3.25;;
43700;SDS011;58809;47.984;7.964;2022-11-15T14:30:29;6.60;;;3.72;;
43700;SDS011;58809;47.984;7.964;2022-11-15T14:36:38;4.32;;;3.30;;
43700;SDS011;58809;47.984;7.964;2022-11-15T14:39:40;4.68;;;3.70;;
43700;SDS011;58809;47.984;7.964;2022-11-15T14:42:42;5.32;;;4.18;;
43700;SDS011;58809;47.984;7.964;2022-11-15T14:45:45;5.23;;;3.33;;
43700;SDS011;58809;47.984;7.964;2022-11-15T14:48:46;5.68;;;3.25;;
43700;SDS011;58809;47.984;7.964;2022-11-15T14:51:48;4.18;;;3.58;;
43700;SDS011;58809;47.984;7.964;2022-11-15T14:54:49;4.50;;;3.83;;
43700;SDS011;58809;47.984;7.964;2022-11-15T14:57:51;5.60;;;3.25;;
43700;SDS011;58809;47.984;7.964;2022-11-15T15:00:54;5.25;;;3.70;;
43700;SDS011;58809;47.984;7.964;2022-11-15T15:04:03;6.75;;;3.97;;
43700;SDS011;58809;47.984;7.964;2022-11-15T15:07:05;5.78;;;4.18;;
43700;SDS011;58809;47.984;7.964;2022-11-15T15:10:06;5.43;;;4.32;;
43700;SDS011;58809;47.984;7.964;2022-11-15T15:13:28;6.05;;;3.58;;
43700;SDS011;58809;47.984;7.964;2022-11-15T15:16:31;7.35;;;4.35;;
43700;SDS011;58809;47.984;7.964;2022-11-15T15:19:33;7.20;;;4.65;;
43700;SDS011;58809;47.984;7.964;2022-11-15T15:22:34;19.42;;;12.07;;
43700;SDS011;58809;47.984;7.964;2022-11-15T15:25:36;25.50;;;15.50;;
43700;SDS011;58809;47.984;7.964;2022-11-15T15:28:38;19.77;;;12.65;;
43700;SDS011;58809;47.984;7.964;2022-11-15T15:31:41;9.93;;;6.93;;
43700;SDS011;58809;47.984;7.964;2022-11-15T15:34:42;9.32;;;6.50;;
43700;SDS011;58809;47.984;7.964;2022-11-15T15:37:44;7.18;;;5.38;;
43700;SDS011;58809;47.984;7.964;2022-11-15T15:40:47;8.23;;;5.10;;
43700;SDS011;58809;47.984;7.964;2022-11-15T15:43:52;7.60;;;4.55;;
43700;SDS011;58809;47.984;7.964;2022-11-15T15:46:53;8.05;;;5.03;;
43700;SDS011;58809;47.984;7.964;2022-11-15T15:49:54;9.88;;;5.75;;
43700;SDS011;58809;47.984;7.964;2022-11-15T15:52:57;7.97;;;5.30;;
43700;SDS011;58809;47.984;7.964;2022-11-15T15:59:02;7.78;;;6.22;;
43700;SDS011;58809;47.984;7.964;2022-11-15T16:02:04;7.63;;;5.75;;
43700;SDS011;58809;47.984;7.964;2022-11-15T16:05:06;6.78;;;5.93;;
43700;SDS011;58809;47.984;7.964;2022-11-15T16:08:21;9.27;;;5.90;;
43700;SDS011;58809;47.984;7.964;2022-11-15T16:11:25;8.88;;;6.43;;
43700;SDS011;58809;47.984;7.964;2022-11-15T16:14:31;7.47;;;6.13;;
43700;SDS011;58809;47.984;7.964;2022-11-15T16:17:33;8.50;;;6.13;;
43700;SDS011;58809;47.984;7.964;2022-11-15T16:20:43;10.50;;;7.85;;
43700;SDS011;58809;47.984;7.964;2022-11-15T16:23:46;10.55;;;7.60;;
43700;SDS011;58809;47.984;7.964;2022-11-15T16:26:48;7.95;;;6.03;;
43700;SDS011;58809;47.984;7.964;2022-11-15T16:29:51;8.07;;;5.53;;
43700;SDS011;58809;47.984;7.964;2022-11-15T16:32:53;7.40;;;5.47;;
43700;SDS011;58809;47.984;7.964;2022-11-15T16:35:55;7.65;;;5.57;;
43700;SDS011;58809;47.984;7.964;2022-11-15T16:38:57;13.18;;;7.97;;
43700;SDS011;58809;47.984;7.964;2022-11-15T16:41:59;24.30;;;15.57;;
43700;SDS011;58809;47.984;7.964;2022-11-15T16:45:00;18.77;;;11.80;;
43700;SDS011;58809;47.984;7.964;2022-11-15T16:48:02;8.95;;;6.05;;
43700;SDS011;58809;47.984;7.964;2022-11-15T16:51:05;8.05;;;5.20;;
43700;SDS011;58809;47.984;7.964;2022-11-15T16:54:06;8.18;;;5.85;;
43700;SDS011;58809;47.984;7.964;2022-11-15T16:57:09;6.90;;;5.32;;
43700;SDS011;58809;47.984;7.964;2022-11-15T17:00:11;7.15;;;6.45;;
43700;SDS011;58809;47.984;7.964;2022-11-15T17:03:16;7.65;;;5.95;;
43700;SDS011;58809;47.984;7.964;2022-11-15T17:06:18;6.53;;;5.32;;
43700;SDS011;58809;47.984;7.964;2022-11-15T17:09:20;8.20;;;5.40;;
43700;SDS011;58809;47.984;7.964;2022-11-15T17:12:26;7.80;;;6.10;;
43700;SDS011;58809;47.984;7.964;2022-11-15T17:15:28;10.52;;;7.20;;
43700;SDS011;58809;47.984;7.964;2022-11-15T17:18:30;9.63;;;7.72;;
43700;SDS011;58809;47.984;7.964;2022-11-15T17:21:32;7.03;;;5.05;;
43700;SDS011;58809;47.984;7.964;2022-11-15T17:24:34;5.82;;;4.88;;
43700;SDS011;58809;47.984;7.964;2022-11-15T17:27:35;7.68;;;5.10;;
43700;SDS011;58809;47.984;7.964;2022-11-15T17:30:39;6.05;;;4.32;;
43700;SDS011;58809;47.984;7.964;2022-11-15T17:33:42;6.93;;;4.70;;
43700;SDS011;58809;47.984;7.964;2022-11-15T17:36:43;7.45;;;5.00;;
43700;SDS011;58809;47.984;7.964;2022-11-15T17:39:45;8.60;;;6.43;;
43700;SDS011;58809;47.984;7.964;2022-11-15T17:42:47;6.03;;;4.43;;
43700;SDS011;58809;47.984;7.964;2022-11-15T17:45:48;9.25;;;4.90;;
43700;SDS011;58809;47.984;7.964;2022-11-15T17:48:50;7.32;;;5.75;;
43700;SDS011;58809;47.984;7.964;2022-11-15T17:51:52;8.10;;;5.20;;
43700;SDS011;58809;47.984;7.964;2022-11-15T17:54:53;6.65;;;4.63;;
43700;SDS011;58809;47.984;7.964;2022-11-15T17:57:55;7.03;;;4.95;;
43700;SDS011;58809;47.984;7.964;2022-11-15T18:01:06;7.20;;;4.80;;
43700;SDS011;58809;47.984;7.964;2022-11-15T18:04:24;8.60;;;5.22;;
43700;SDS011;58809;47.984;7.964;2022-11-15T18:07:28;8.45;;;5.68;;
43700;SDS011;58809;47.984;7.964;2022-11-15T18:10:30;11.43;;;6.95;;
43700;SDS011;58809;47.984;7.964;2022-11-15T18:13:53;8.68;;;7.50;;
43700;SDS011;58809;47.984;7.964;2022-11-15T18:17:08;7.22;;;4.72;;
43700;SDS011;58809;47.984;7.964;2022-11-15T18:20:10;9.48;;;6.53;;
43700;SDS011;58809;47.984;7.964;2022-11-15T18:23:12;10.73;;;8.55;;
43700;SDS011;58809;47.984;7.964;2022-11-15T18:26:14;8.35;;;5.93;;
43700;SDS011;58809;47.984;7.964;2022-11-15T18:29:17;6.35;;;4.75;;
43700;SDS011;58809;47.984;7.964;2022-11-15T18:32:20;9.30;;;4.75;;
43700;SDS011;58809;47.984;7.964;2022-11-15T18:35:22;9.77;;;8.38;;
43700;SDS011;58809;47.984;7.964;2022-11-15T18:38:23;7.32;;;5.05;;
43700;SDS011;58809;47.984;7.964;2022-11-15T18:41:31;6.70;;;4.55;;
43700;SDS011;58809;47.984;7.964;2022-11-15T18:44:34;7.43;;;5.15;;
43700;SDS011;58809;47.984;7.964;2022-11-15T18:47:35;7.07;;;5.03;;
43700;SDS011;58809;47.984;7.964;2022-11-15T18:50:37;6.65;;;4.53;;
43700;SDS011;58809;47.984;7.964;2022-11-15T18:53:39;6.68;;;5.43;;
43700;SDS011;58809;47.984;7.964;2022-11-15T18:56:42;8.85;;;6.43;;
43700;SDS011;58809;47.984;7.964;2022-11-15T18:59:45;7.20;;;5.00;;
43700;SDS011;58809;47.984;7.964;2022-11-15T19:02:47;6.95;;;3.90;;
43700;SDS011;58809;47.984;7.964;2022-11-15T19:05:48;6.97;;;4.68;;
43700;SDS011;58809;47.984;7.964;2022-11-15T19:08:51;5.90;;;4.55;;
43700;SDS011;58809;47.984;7.964;2022-11-15T19:11:54;5.95;;;4.28;;
43700;SDS011;58809;47.984;7.964;2022-11-15T19:14:56;12.95;;;4.88;;
43700;SDS011;58809;47.984;7.964;2022-11-15T19:17:58;7.45;;;4.70;;
43700;SDS011;58809;47.984;7.964;2022-11-15T19:21:03;6.95;;;5.05;;
43700;SDS011;58809;47.984;7.964;2022-11-15T19:24:16;20.30;;;12.85;;
43700;SDS011;58809;47.984;7.964;2022-11-15T19:27:17;23.25;;;15.65;;
43700;SDS011;58809;47.984;7.964;2022-11-15T19:30:19;14.98;;;10.52;;
43700;SDS011;58809;47.984;7.964;2022-11-15T19:33:21;11.88;;;8.52;;
43700;SDS011;58809;47.984;7.964;2022-11-15T19:36:40;7.60;;;5.82;;
43700;SDS011;58809;47.984;7.964;2022-11-15T19:40:07;9.10;;;6.93;;
43700;SDS011;58809;47.984;7.964;2022-11-15T19:43:09;8.82;;;5.95;;
43700;SDS011;58809;47.984;7.964;2022-11-15T19:46:11;28.55;;;17.60;;
43700;SDS011;58809;47.984;7.964;2022-11-15T19:49:12;21.20;;;15.98;;
43700;SDS011;58809;47.984;7.964;2022-11-15T19:52:14;9.65;;;6.85;;
43700;SDS011;58809;47.984;7.964;2022-11-15T19:55:16;18.40;;;10.82;;
43700;SDS011;58809;47.984;7.964;2022-11-15T19:58:17;7.68;;;6.05;;
43700;SDS011;58809;47.984;7.964;2022-11-15T20:01:23;7.75;;;4.18;;
43700;SDS011;58809;47.984;7.964;2022-11-15T20:04:30;5.05;;;3.78;;
43700;SDS011;58809;47.984;7.964;2022-11-15T20:07:38;5.18;;;3.83;;
43700;SDS011;58809;47.984;7.964;2022-11-15T20:10:43;8.25;;;5.30;;
43700;SDS011;58809;47.984;7.964;2022-11-15T20:13:46;11.25;;;5.57;;
43700;SDS011;58809;47.984;7.964;2022-11-15T20:16:47;14.80;;;6.70;;
43700;SDS011;58809;47.984;7.964;2022-11-15T20:19:57;8.93;;;6.72;;
43700;SDS011;58809;47.984;7.964;2022-11-15T20:23:01;9.90;;;6.35;;
43700;SDS011;58809;47.984;7.964;2022-11-15T20:26:04;8.43;;;4.70;;
43700;SDS011;58809;47.984;7.964;2022-11-15T20:29:06;9.07;;;4.60;;
43700;SDS011;58809;47.984;7.964;2022-11-15T20:35:24;7.90;;;5.10;;
43700;SDS011;58809;47.984;7.964;2022-11-15T20:38:26;8.38;;;4.40;;
43700;SDS011;58809;47.984;7.964;2022-11-15T20:41:39;7.32;;;5.40;;
43700;SDS011;58809;47.984;7.964;2022-11-15T20:44:47;7.57;;;5.07;;
43700;SDS011;58809;47.984;7.964;2022-11-15T20:47:49;8.05;;;4.82;;
43700;SDS011;58809;47.984;7.964;2022-11-15T20:50:51;8.82;;;4.28;;
43700;SDS011;58809;47.984;7.964;2022-11-15T20:54:04;7.32;;;4.82;;
43700;SDS011;58809;47.984;7.964;2022-11-15T20:57:06;5.63;;;4.35;;
43700;SDS011;58809;47.984;7.964;2022-11-15T21:00:11;5.63;;;4.38;;
43700;SDS011;58809;47.984;7.964;2022-11-15T21:03:14;6.50;;;3.90;;
43700;SDS011;58809;47.984;7.964;2022-11-15T21:06:15;7.13;;;4.63;;
43700;SDS011;58809;47.984;7.964;2022-11-15T21:09:21;13.35;;;8.57;;
43700;SDS011;58809;47.984;7.964;2022-11-15T21:12:43;20.58;;;13.80;;
43700;SDS011;58809;47.984;7.964;2022-11-15T21:15:58;19.00;;;13.05;;
43700;SDS011;58809;47.984;7.964;2022-11-15T21:19:02;17.70;;;11.30;;
43700;SDS011;58809;47.984;7.964;2022-11-15T21:22:16;10.63;;;5.88;;
43700;SDS011;58809;47.984;7.964;2022-11-15T21:31:45;8.52;;;6.30;;
43700;SDS011;58809;47.984;7.964;2022-11-15T21:34:47;8.88;;;5.93;;
43700;SDS011;58809;47.984;7.964;2022-11-15T21:37:49;10.38;;;7.28;;